sensor_id;sensor_type;location;lat;lon;timestamp;temperature;humidity
4411;DHT22;2218;51.408;7.208;2024-01-11T00:01:45;17.20;22.30
4411;DHT22;2218;51.408;7.208;2024-01-11T00:04:12;17.20;22.30
4411;DHT22;2218;51.408;7.208;2024-01-11T00:06:41;17.20;22.40
4411;DHT22;2218;51.408;7.208;2024-01-11T00:09:09;17.20;22.40
4411;DHT22;2218;51.408;7.208;2024-01-11T00:11:36;17.20;22.40
4411;DHT22;2218;51.408;7.208;2024-01-11T00:14:03;17.10;22.40
4411;DHT22;2218;51.408;7.208;2024-01-11T00:16:31;17.10;22.40
4411;DHT22;2218;51.408;7.208;2024-01-11T00:18:58;17.10;22.40
4411;DHT22;2218;51.408;7.208;2024-01-11T00:21:26;17.10;22.50
4411;DHT22;2218;51.408;7.208;2024-01-11T00:23:53;17.00;22.50
4411;DHT22;2218;51.408;7.208;2024-01-11T00:26:20;17.00;22.50
4411;DHT22;2218;51.408;7.208;2024-01-11T00:28:47;17.00;22.50
4411;DHT22;2218;51.408;7.208;2024-01-11T00:31:15;17.00;22.50
4411;DHT22;2218;51.408;7.208;2024-01-11T00:33:43;17.00;22.60
4411;DHT22;2218;51.408;7.208;2024-01-11T00:36:10;16.90;22.50
4411;DHT22;2218;51.408;7.208;2024-01-11T00:38:37;16.90;22.60
4411;DHT22;2218;51.408;7.208;2024-01-11T00:41:04;16.90;22.60
4411;DHT22;2218;51.408;7.208;2024-01-11T00:43:31;16.90;22.60
4411;DHT22;2218;51.408;7.208;2024-01-11T00:45:58;16.90;22.60
4411;DHT22;2218;51.408;7.208;2024-01-11T00:48:25;16.90;22.70
4411;DHT22;2218;51.408;7.208;2024-01-11T00:50:53;16.80;22.60
4411;DHT22;2218;51.408;7.208;2024-01-11T00:53:20;16.80;22.70
4411;DHT22;2218;51.408;7.208;2024-01-11T00:55:48;16.80;22.70
4411;DHT22;2218;51.408;7.208;2024-01-11T00:58:15;16.80;22.70
4411;DHT22;2218;51.408;7.208;2024-01-11T01:00:42;16.80;22.70
4411;DHT22;2218;51.408;7.208;2024-01-11T01:03:09;16.80;23.20
4411;DHT22;2218;51.408;7.208;2024-01-11T01:05:35;16.80;22.70
4411;DHT22;2218;51.408;7.208;2024-01-11T01:08:05;16.80;22.60
4411;DHT22;2218;51.408;7.208;2024-01-11T01:10:32;16.90;22.60
4411;DHT22;2218;51.408;7.208;2024-01-11T01:12:59;16.90;22.60
4411;DHT22;2218;51.408;7.208;2024-01-11T01:15:25;17.00;22.60
4411;DHT22;2218;51.408;7.208;2024-01-11T01:17:52;17.00;22.50
4411;DHT22;2218;51.408;7.208;2024-01-11T01:20:19;17.10;22.50
4411;DHT22;2218;51.408;7.208;2024-01-11T01:22:46;17.10;22.90
4411;DHT22;2218;51.408;7.208;2024-01-11T01:25:15;17.20;22.30
4411;DHT22;2218;51.408;7.208;2024-01-11T01:27:41;17.20;22.30
4411;DHT22;2218;51.408;7.208;2024-01-11T01:30:09;17.20;22.20
4411;DHT22;2218;51.408;7.208;2024-01-11T01:32:36;17.30;22.10
4411;DHT22;2218;51.408;7.208;2024-01-11T01:35:04;17.30;22.00
4411;DHT22;2218;51.408;7.208;2024-01-11T01:37:31;17.30;22.00
4411;DHT22;2218;51.408;7.208;2024-01-11T01:39:57;17.30;21.90
4411;DHT22;2218;51.408;7.208;2024-01-11T01:42:25;17.30;22.00
4411;DHT22;2218;51.408;7.208;2024-01-11T01:44:53;17.40;22.00
4411;DHT22;2218;51.408;7.208;2024-01-11T01:47:21;17.40;22.00
4411;DHT22;2218;51.408;7.208;2024-01-11T01:49:49;17.40;22.30
4411;DHT22;2218;51.408;7.208;2024-01-11T01:52:16;17.40;21.90
4411;DHT22;2218;51.408;7.208;2024-01-11T01:54:44;17.30;21.80
4411;DHT22;2218;51.408;7.208;2024-01-11T01:57:13;17.40;21.90
4411;DHT22;2218;51.408;7.208;2024-01-11T01:59:43;17.40;21.90
4411;DHT22;2218;51.408;7.208;2024-01-11T02:02:12;17.40;21.80
4411;DHT22;2218;51.408;7.208;2024-01-11T02:04:39;17.40;21.80
4411;DHT22;2218;51.408;7.208;2024-01-11T02:07:06;17.40;21.80
4411;DHT22;2218;51.408;7.208;2024-01-11T02:09:35;17.40;21.70
4411;DHT22;2218;51.408;7.208;2024-01-11T02:12:03;17.50;21.90
4411;DHT22;2218;51.408;7.208;2024-01-11T02:14:32;17.50;21.80
4411;DHT22;2218;51.408;7.208;2024-01-11T02:17:00;17.50;21.80
4411;DHT22;2218;51.408;7.208;2024-01-11T02:19:28;17.50;21.80
4411;DHT22;2218;51.408;7.208;2024-01-11T02:21:57;17.50;21.80
4411;DHT22;2218;51.408;7.208;2024-01-11T02:24:32;17.50;21.80
4411;DHT22;2218;51.408;7.208;2024-01-11T02:27:00;17.50;21.70
4411;DHT22;2218;51.408;7.208;2024-01-11T02:29:29;17.50;21.80
4411;DHT22;2218;51.408;7.208;2024-01-11T02:31:57;17.50;21.80
4411;DHT22;2218;51.408;7.208;2024-01-11T02:34:27;17.50;21.70
4411;DHT22;2218;51.408;7.208;2024-01-11T02:36:54;17.50;21.60
4411;DHT22;2218;51.408;7.208;2024-01-11T02:39:23;17.50;21.70
4411;DHT22;2218;51.408;7.208;2024-01-11T02:41:54;17.50;21.70
4411;DHT22;2218;51.408;7.208;2024-01-11T02:44:23;17.50;21.60
4411;DHT22;2218;51.408;7.208;2024-01-11T02:46:50;17.60;21.70
4411;DHT22;2218;51.408;7.208;2024-01-11T02:49:17;17.60;21.60
4411;DHT22;2218;51.408;7.208;2024-01-11T02:51:45;17.50;21.60
4411;DHT22;2218;51.408;7.208;2024-01-11T02:54:12;17.60;21.60
4411;DHT22;2218;51.408;7.208;2024-01-11T02:56:39;17.60;21.60
4411;DHT22;2218;51.408;7.208;2024-01-11T02:59:07;17.60;21.60
4411;DHT22;2218;51.408;7.208;2024-01-11T03:01:34;17.60;21.60
4411;DHT22;2218;51.408;7.208;2024-01-11T03:04:02;17.60;21.50
4411;DHT22;2218;51.408;7.208;2024-01-11T03:06:29;17.60;21.50
4411;DHT22;2218;51.408;7.208;2024-01-11T03:08:56;17.60;21.50
4411;DHT22;2218;51.408;7.208;2024-01-11T03:11:22;17.60;21.50
4411;DHT22;2218;51.408;7.208;2024-01-11T03:13:49;17.60;21.50
4411;DHT22;2218;51.408;7.208;2024-01-11T03:16:18;17.60;21.50
4411;DHT22;2218;51.408;7.208;2024-01-11T03:18:45;17.60;21.50
4411;DHT22;2218;51.408;7.208;2024-01-11T03:21:12;17.60;21.50
4411;DHT22;2218;51.408;7.208;2024-01-11T03:23:39;17.60;21.50
4411;DHT22;2218;51.408;7.208;2024-01-11T03:26:12;17.60;21.50
4411;DHT22;2218;51.408;7.208;2024-01-11T03:28:42;17.60;21.50
4411;DHT22;2218;51.408;7.208;2024-01-11T03:31:09;17.60;21.50
4411;DHT22;2218;51.408;7.208;2024-01-11T03:33:38;17.70;21.60
4411;DHT22;2218;51.408;7.208;2024-01-11T03:36:09;17.60;21.50
4411;DHT22;2218;51.408;7.208;2024-01-11T03:38:36;17.70;21.60
4411;DHT22;2218;51.408;7.208;2024-01-11T03:41:07;17.70;21.50
4411;DHT22;2218;51.408;7.208;2024-01-11T03:43:35;17.70;21.50
4411;DHT22;2218;51.408;7.208;2024-01-11T03:46:02;17.70;21.50
4411;DHT22;2218;51.408;7.208;2024-01-11T03:48:29;17.60;21.40
4411;DHT22;2218;51.408;7.208;2024-01-11T03:50:58;17.60;21.40
4411;DHT22;2218;51.408;7.208;2024-01-11T03:53:26;17.60;21.40
4411;DHT22;2218;51.408;7.208;2024-01-11T03:55:53;17.60;21.40
4411;DHT22;2218;51.408;7.208;2024-01-11T03:58:20;17.60;21.40
4411;DHT22;2218;51.408;7.208;2024-01-11T04:00:48;17.60;21.90
4411;DHT22;2218;51.408;7.208;2024-01-11T04:03:15;17.70;21.60
4411;DHT22;2218;51.408;7.208;2024-01-11T04:05:42;17.60;21.40
4411;DHT22;2218;51.408;7.208;2024-01-11T04:08:11;17.60;21.40
4411;DHT22;2218;51.408;7.208;2024-01-11T04:10:38;17.70;21.50
4411;DHT22;2218;51.408;7.208;2024-01-11T04:13:07;17.70;21.50
4411;DHT22;2218;51.408;7.208;2024-01-11T04:15:34;17.70;21.50
4411;DHT22;2218;51.408;7.208;2024-01-11T04:18:02;17.70;21.50
4411;DHT22;2218;51.408;7.208;2024-01-11T04:20:29;17.60;21.40
4411;DHT22;2218;51.408;7.208;2024-01-11T04:22:56;17.70;21.50
4411;DHT22;2218;51.408;7.208;2024-01-11T04:25:24;17.60;21.40
4411;DHT22;2218;51.408;7.208;2024-01-11T04:27:51;17.70;21.40
4411;DHT22;2218;51.408;7.208;2024-01-11T04:30:18;17.70;21.50
4411;DHT22;2218;51.408;7.208;2024-01-11T04:32:45;17.70;21.50
4411;DHT22;2218;51.408;7.208;2024-01-11T04:35:12;17.70;21.90
4411;DHT22;2218;51.408;7.208;2024-01-11T04:37:39;17.70;21.50
4411;DHT22;2218;51.408;7.208;2024-01-11T04:40:07;17.70;21.40
4411;DHT22;2218;51.408;7.208;2024-01-11T04:42:37;17.70;21.40
4411;DHT22;2218;51.408;7.208;2024-01-11T04:45:04;17.70;21.50
4411;DHT22;2218;51.408;7.208;2024-01-11T04:47:31;17.70;21.40
4411;DHT22;2218;51.408;7.208;2024-01-11T04:49:58;17.70;21.40
4411;DHT22;2218;51.408;7.208;2024-01-11T04:52:25;17.70;21.40
4411;DHT22;2218;51.408;7.208;2024-01-11T04:54:52;17.70;21.40
4411;DHT22;2218;51.408;7.208;2024-01-11T04:57:19;17.70;21.30
4411;DHT22;2218;51.408;7.208;2024-01-11T04:59:47;17.70;21.40
4411;DHT22;2218;51.408;7.208;2024-01-11T05:02:14;17.70;21.40
4411;DHT22;2218;51.408;7.208;2024-01-11T05:04:41;17.70;21.40
4411;DHT22;2218;51.408;7.208;2024-01-11T05:07:09;17.70;21.40
4411;DHT22;2218;51.408;7.208;2024-01-11T05:09:35;17.70;21.30
4411;DHT22;2218;51.408;7.208;2024-01-11T05:12:03;17.70;21.30
4411;DHT22;2218;51.408;7.208;2024-01-11T05:14:30;17.70;21.30
4411;DHT22;2218;51.408;7.208;2024-01-11T05:16:58;17.70;21.30
4411;DHT22;2218;51.408;7.208;2024-01-11T05:19:27;17.70;21.20
4411;DHT22;2218;51.408;7.208;2024-01-11T05:21:54;17.70;21.20
4411;DHT22;2218;51.408;7.208;2024-01-11T05:24:21;17.70;21.20
4411;DHT22;2218;51.408;7.208;2024-01-11T05:26:47;17.80;21.40
4411;DHT22;2218;51.408;7.208;2024-01-11T05:29:14;17.80;21.40
4411;DHT22;2218;51.408;7.208;2024-01-11T05:31:41;17.80;21.30
4411;DHT22;2218;51.408;7.208;2024-01-11T05:34:10;17.80;21.30
4411;DHT22;2218;51.408;7.208;2024-01-11T05:36:38;17.80;21.30
4411;DHT22;2218;51.408;7.208;2024-01-11T05:39:05;17.80;21.70
4411;DHT22;2218;51.408;7.208;2024-01-11T05:41:32;17.80;21.20
4411;DHT22;2218;51.408;7.208;2024-01-11T05:43:59;17.80;21.30
4411;DHT22;2218;51.408;7.208;2024-01-11T05:46:26;17.80;21.20
4411;DHT22;2218;51.408;7.208;2024-01-11T05:48:53;17.90;21.20
4411;DHT22;2218;51.408;7.208;2024-01-11T05:51:21;17.80;21.20
4411;DHT22;2218;51.408;7.208;2024-01-11T05:53:48;17.90;21.20
4411;DHT22;2218;51.408;7.208;2024-01-11T05:56:19;17.90;21.20
4411;DHT22;2218;51.408;7.208;2024-01-11T05:58:46;17.90;21.10
4411;DHT22;2218;51.408;7.208;2024-01-11T06:01:13;17.90;21.10
4411;DHT22;2218;51.408;7.208;2024-01-11T06:03:41;17.90;21.10
4411;DHT22;2218;51.408;7.208;2024-01-11T06:06:07;17.90;21.10
4411;DHT22;2218;51.408;7.208;2024-01-11T06:08:36;17.90;21.10
4411;DHT22;2218;51.408;7.208;2024-01-11T06:11:03;17.90;21.10
4411;DHT22;2218;51.408;7.208;2024-01-11T06:13:30;17.90;21.10
4411;DHT22;2218;51.408;7.208;2024-01-11T06:15:57;17.90;21.10
4411;DHT22;2218;51.408;7.208;2024-01-11T06:18:24;17.90;21.00
4411;DHT22;2218;51.408;7.208;2024-01-11T06:20:51;17.90;21.10
4411;DHT22;2218;51.408;7.208;2024-01-11T06:23:18;18.00;21.10
4411;DHT22;2218;51.408;7.208;2024-01-11T06:25:47;18.00;21.00
4411;DHT22;2218;51.408;7.208;2024-01-11T06:28:14;17.90;21.00
4411;DHT22;2218;51.408;7.208;2024-01-11T06:30:42;18.00;21.00
4411;DHT22;2218;51.408;7.208;2024-01-11T06:33:10;18.00;21.00
4411;DHT22;2218;51.408;7.208;2024-01-11T06:35:38;18.00;21.00
4411;DHT22;2218;51.408;7.208;2024-01-11T06:38:05;18.00;21.00
4411;DHT22;2218;51.408;7.208;2024-01-11T06:40:33;18.00;20.90
4411;DHT22;2218;51.408;7.208;2024-01-11T06:43:01;18.10;20.90
4411;DHT22;2218;51.408;7.208;2024-01-11T06:45:28;18.40;20.50
4411;DHT22;2218;51.408;7.208;2024-01-11T06:47:55;18.60;20.50
4411;DHT22;2218;51.408;7.208;2024-01-11T06:50:22;18.90;20.00
4411;DHT22;2218;51.408;7.208;2024-01-11T06:52:50;19.10;19.90
4411;DHT22;2218;51.408;7.208;2024-01-11T06:55:16;19.00;19.70
4411;DHT22;2218;51.408;7.208;2024-01-11T06:57:46;19.00;19.40
4411;DHT22;2218;51.408;7.208;2024-01-11T07:00:16;19.00;19.30
4411;DHT22;2218;51.408;7.208;2024-01-11T07:02:43;19.00;19.20
4411;DHT22;2218;51.408;7.208;2024-01-11T07:05:10;19.10;19.30
4411;DHT22;2218;51.408;7.208;2024-01-11T07:07:37;19.10;19.20
4411;DHT22;2218;51.408;7.208;2024-01-11T07:10:07;19.10;19.30
4411;DHT22;2218;51.408;7.208;2024-01-11T07:12:34;19.20;19.20
4411;DHT22;2218;51.408;7.208;2024-01-11T07:15:03;19.30;19.10
4411;DHT22;2218;51.408;7.208;2024-01-11T07:17:32;19.30;19.70
4411;DHT22;2218;51.408;7.208;2024-01-11T07:19:59;19.30;19.40
4411;DHT22;2218;51.408;7.208;2024-01-11T07:22:26;19.30;19.40
4411;DHT22;2218;51.408;7.208;2024-01-11T07:24:53;19.40;19.50
4411;DHT22;2218;51.408;7.208;2024-01-11T07:27:20;19.40;19.50
4411;DHT22;2218;51.408;7.208;2024-01-11T07:29:48;19.40;19.40
4411;DHT22;2218;51.408;7.208;2024-01-11T07:32:14;19.40;19.40
4411;DHT22;2218;51.408;7.208;2024-01-11T07:34:43;19.50;19.40
4411;DHT22;2218;51.408;7.208;2024-01-11T07:37:10;19.50;19.40
4411;DHT22;2218;51.408;7.208;2024-01-11T07:39:37;19.60;19.20
4411;DHT22;2218;51.408;7.208;2024-01-11T07:42:04;19.60;19.10
4411;DHT22;2218;51.408;7.208;2024-01-11T07:44:31;19.60;19.00
4411;DHT22;2218;51.408;7.208;2024-01-11T07:46:58;19.60;19.10
4411;DHT22;2218;51.408;7.208;2024-01-11T07:49:25;19.60;18.90
4411;DHT22;2218;51.408;7.208;2024-01-11T07:51:53;19.70;19.10
4411;DHT22;2218;51.408;7.208;2024-01-11T07:54:21;19.90;19.00
4411;DHT22;2218;51.408;7.208;2024-01-11T07:56:47;19.80;18.90
4411;DHT22;2218;51.408;7.208;2024-01-11T07:59:14;19.70;18.70
4411;DHT22;2218;51.408;7.208;2024-01-11T08:01:41;19.70;18.70
4411;DHT22;2218;51.408;7.208;2024-01-11T08:04:09;19.70;18.50
4411;DHT22;2218;51.408;7.208;2024-01-11T08:06:36;19.60;18.40
4411;DHT22;2218;51.408;7.208;2024-01-11T08:09:04;19.60;18.60
4411;DHT22;2218;51.408;7.208;2024-01-11T08:11:31;19.70;18.60
4411;DHT22;2218;51.408;7.208;2024-01-11T08:13:58;19.70;18.60
4411;DHT22;2218;51.408;7.208;2024-01-11T08:16:25;19.70;18.60
4411;DHT22;2218;51.408;7.208;2024-01-11T08:18:52;19.70;18.60
4411;DHT22;2218;51.408;7.208;2024-01-11T08:21:19;19.70;18.60
4411;DHT22;2218;51.408;7.208;2024-01-11T08:23:46;19.70;18.60
4411;DHT22;2218;51.408;7.208;2024-01-11T08:26:16;19.70;18.60
4411;DHT22;2218;51.408;7.208;2024-01-11T08:28:44;19.70;18.50
4411;DHT22;2218;51.408;7.208;2024-01-11T08:31:12;19.70;18.50
4411;DHT22;2218;51.408;7.208;2024-01-11T08:33:39;20.00;18.50
4411;DHT22;2218;51.408;7.208;2024-01-11T08:36:06;20.30;18.50
4411;DHT22;2218;51.408;7.208;2024-01-11T08:38:33;20.50;18.50
4411;DHT22;2218;51.408;7.208;2024-01-11T08:41:01;20.60;18.50
4411;DHT22;2218;51.408;7.208;2024-01-11T08:43:30;20.70;18.60
4411;DHT22;2218;51.408;7.208;2024-01-11T08:45:57;20.50;17.90
4411;DHT22;2218;51.408;7.208;2024-01-11T08:48:24;20.10;17.50
4411;DHT22;2218;51.408;7.208;2024-01-11T08:50:51;19.80;17.60
4411;DHT22;2218;51.408;7.208;2024-01-11T08:53:18;19.70;17.90
4411;DHT22;2218;51.408;7.208;2024-01-11T08:55:45;19.70;18.10
4411;DHT22;2218;51.408;7.208;2024-01-11T08:58:13;19.70;18.20
4411;DHT22;2218;51.408;7.208;2024-01-11T09:00:42;19.60;18.10
4411;DHT22;2218;51.408;7.208;2024-01-11T09:03:09;19.60;18.20
4411;DHT22;2218;51.408;7.208;2024-01-11T09:05:37;19.60;18.30
4411;DHT22;2218;51.408;7.208;2024-01-11T09:08:05;19.50;18.30
4411;DHT22;2218;51.408;7.208;2024-01-11T09:10:32;19.50;18.10
4411;DHT22;2218;51.408;7.208;2024-01-11T09:13:00;19.50;18.10
4411;DHT22;2218;51.408;7.208;2024-01-11T09:15:27;19.50;18.10
4411;DHT22;2218;51.408;7.208;2024-01-11T09:17:55;19.50;18.10
4411;DHT22;2218;51.408;7.208;2024-01-11T09:20:23;19.50;18.10
4411;DHT22;2218;51.408;7.208;2024-01-11T09:22:50;19.50;18.50
4411;DHT22;2218;51.408;7.208;2024-01-11T09:25:17;19.50;18.10
4411;DHT22;2218;51.408;7.208;2024-01-11T09:27:44;19.50;18.10
4411;DHT22;2218;51.408;7.208;2024-01-11T09:30:12;19.50;18.00
4411;DHT22;2218;51.408;7.208;2024-01-11T09:32:39;19.50;18.10
4411;DHT22;2218;51.408;7.208;2024-01-11T09:35:07;19.50;18.10
4411;DHT22;2218;51.408;7.208;2024-01-11T09:37:35;19.50;18.00
4411;DHT22;2218;51.408;7.208;2024-01-11T09:40:02;19.40;18.00
4411;DHT22;2218;51.408;7.208;2024-01-11T09:42:32;19.40;18.00
4411;DHT22;2218;51.408;7.208;2024-01-11T09:45:00;19.40;18.10
4411;DHT22;2218;51.408;7.208;2024-01-11T09:47:32;19.40;18.10
4411;DHT22;2218;51.408;7.208;2024-01-11T09:50:02;19.40;18.50
4411;DHT22;2218;51.408;7.208;2024-01-11T09:52:31;19.50;18.80
4411;DHT22;2218;51.408;7.208;2024-01-11T09:54:58;19.50;19.00
4411;DHT22;2218;51.408;7.208;2024-01-11T09:57:29;19.60;19.20
4411;DHT22;2218;51.408;7.208;2024-01-11T09:59:58;19.60;19.30
4411;DHT22;2218;51.408;7.208;2024-01-11T10:02:25;19.60;19.40
4411;DHT22;2218;51.408;7.208;2024-01-11T10:04:53;19.60;19.50
4411;DHT22;2218;51.408;7.208;2024-01-11T10:07:22;19.60;19.60
4411;DHT22;2218;51.408;7.208;2024-01-11T10:09:51;19.60;19.10
4411;DHT22;2218;51.408;7.208;2024-01-11T10:12:19;19.60;18.80
4411;DHT22;2218;51.408;7.208;2024-01-11T10:14:51;19.50;18.70
4411;DHT22;2218;51.408;7.208;2024-01-11T10:17:18;19.50;18.70
4411;DHT22;2218;51.408;7.208;2024-01-11T10:19:45;19.50;18.90
4411;DHT22;2218;51.408;7.208;2024-01-11T10:22:12;19.50;18.60
4411;DHT22;2218;51.408;7.208;2024-01-11T10:24:42;19.50;18.60
4411;DHT22;2218;51.408;7.208;2024-01-11T10:27:12;19.50;18.50
4411;DHT22;2218;51.408;7.208;2024-01-11T10:29:39;19.50;18.40
4411;DHT22;2218;51.408;7.208;2024-01-11T10:32:06;19.50;18.40
4411;DHT22;2218;51.408;7.208;2024-01-11T10:34:35;19.50;18.50
4411;DHT22;2218;51.408;7.208;2024-01-11T10:37:05;19.50;19.10
4411;DHT22;2218;51.408;7.208;2024-01-11T10:39:34;19.50;18.90
4411;DHT22;2218;51.408;7.208;2024-01-11T10:42:05;19.50;19.20
4411;DHT22;2218;51.408;7.208;2024-01-11T10:44:35;19.50;19.40
4411;DHT22;2218;51.408;7.208;2024-01-11T10:47:03;19.50;19.40
4411;DHT22;2218;51.408;7.208;2024-01-11T10:49:34;19.50;19.50
4411;DHT22;2218;51.408;7.208;2024-01-11T10:52:07;19.50;19.50
4411;DHT22;2218;51.408;7.208;2024-01-11T10:54:40;19.60;19.70
4411;DHT22;2218;51.408;7.208;2024-01-11T10:57:08;19.60;19.80
4411;DHT22;2218;51.408;7.208;2024-01-11T10:59:39;19.50;19.70
4411;DHT22;2218;51.408;7.208;2024-01-11T11:02:08;19.60;19.80
4411;DHT22;2218;51.408;7.208;2024-01-11T11:04:38;19.50;19.90
4411;DHT22;2218;51.408;7.208;2024-01-11T11:07:08;19.60;20.00
4411;DHT22;2218;51.408;7.208;2024-01-11T11:09:37;19.60;20.00
4411;DHT22;2218;51.408;7.208;2024-01-11T11:12:10;19.60;20.10
4411;DHT22;2218;51.408;7.208;2024-01-11T11:14:40;19.60;20.10
4411;DHT22;2218;51.408;7.208;2024-01-11T11:17:09;19.60;20.10
4411;DHT22;2218;51.408;7.208;2024-01-11T11:19:37;19.60;20.20
4411;DHT22;2218;51.408;7.208;2024-01-11T11:22:05;19.60;20.20
4411;DHT22;2218;51.408;7.208;2024-01-11T11:24:34;19.60;20.20
4411;DHT22;2218;51.408;7.208;2024-01-11T11:27:01;19.60;20.30
4411;DHT22;2218;51.408;7.208;2024-01-11T11:29:29;19.60;20.30
4411;DHT22;2218;51.408;7.208;2024-01-11T11:31:58;19.60;20.30
4411;DHT22;2218;51.408;7.208;2024-01-11T11:34:40;19.60;20.40
4411;DHT22;2218;51.408;7.208;2024-01-11T11:37:09;19.60;20.30
4411;DHT22;2218;51.408;7.208;2024-01-11T11:39:37;19.60;20.30
4411;DHT22;2218;51.408;7.208;2024-01-11T11:42:04;19.60;20.50
4411;DHT22;2218;51.408;7.208;2024-01-11T11:44:33;19.60;20.50
4411;DHT22;2218;51.408;7.208;2024-01-11T11:47:21;19.60;20.50
4411;DHT22;2218;51.408;7.208;2024-01-11T11:50:03;19.60;20.60
4411;DHT22;2218;51.408;7.208;2024-01-11T11:52:33;19.60;20.60
4411;DHT22;2218;51.408;7.208;2024-01-11T11:55:02;19.60;20.50
4411;DHT22;2218;51.408;7.208;2024-01-11T11:57:30;19.60;20.60
4411;DHT22;2218;51.408;7.208;2024-01-11T11:59:58;19.60;20.60
4411;DHT22;2218;51.408;7.208;2024-01-11T12:02:27;19.60;20.70
4411;DHT22;2218;51.408;7.208;2024-01-11T12:04:54;19.60;20.70
4411;DHT22;2218;51.408;7.208;2024-01-11T12:07:24;19.60;20.80
4411;DHT22;2218;51.408;7.208;2024-01-11T12:09:52;19.60;20.80
4411;DHT22;2218;51.408;7.208;2024-01-11T12:12:19;19.60;20.80
4411;DHT22;2218;51.408;7.208;2024-01-11T12:14:46;19.60;20.80
4411;DHT22;2218;51.408;7.208;2024-01-11T12:17:16;19.60;20.90
4411;DHT22;2218;51.408;7.208;2024-01-11T12:19:44;19.60;20.90
4411;DHT22;2218;51.408;7.208;2024-01-11T12:22:11;19.60;20.90
4411;DHT22;2218;51.408;7.208;2024-01-11T12:24:38;19.60;21.00
4411;DHT22;2218;51.408;7.208;2024-01-11T12:27:05;19.60;21.00
4411;DHT22;2218;51.408;7.208;2024-01-11T12:29:32;19.60;21.10
4411;DHT22;2218;51.408;7.208;2024-01-11T12:31:59;19.60;21.20
4411;DHT22;2218;51.408;7.208;2024-01-11T12:34:28;19.60;21.20
4411;DHT22;2218;51.408;7.208;2024-01-11T12:36:57;19.60;21.20
4411;DHT22;2218;51.408;7.208;2024-01-11T12:39:26;19.60;21.20
4411;DHT22;2218;51.408;7.208;2024-01-11T12:41:54;19.60;21.30
4411;DHT22;2218;51.408;7.208;2024-01-11T12:44:23;19.60;21.20
4411;DHT22;2218;51.408;7.208;2024-01-11T12:46:51;19.60;21.30
4411;DHT22;2218;51.408;7.208;2024-01-11T12:49:17;19.60;21.30
4411;DHT22;2218;51.408;7.208;2024-01-11T12:51:45;19.60;21.40
4411;DHT22;2218;51.408;7.208;2024-01-11T12:54:14;19.60;21.40
4411;DHT22;2218;51.408;7.208;2024-01-11T12:56:44;19.60;21.30
4411;DHT22;2218;51.408;7.208;2024-01-11T12:59:12;19.60;21.30
4411;DHT22;2218;51.408;7.208;2024-01-11T13:01:41;19.60;21.30
4411;DHT22;2218;51.408;7.208;2024-01-11T13:04:09;19.60;21.30
4411;DHT22;2218;51.408;7.208;2024-01-11T13:06:37;19.60;21.40
4411;DHT22;2218;51.408;7.208;2024-01-11T13:09:05;19.60;21.40
4411;DHT22;2218;51.408;7.208;2024-01-11T13:11:35;19.60;21.40
4411;DHT22;2218;51.408;7.208;2024-01-11T13:14:02;19.60;21.40
4411;DHT22;2218;51.408;7.208;2024-01-11T13:16:32;19.60;21.50
4411;DHT22;2218;51.408;7.208;2024-01-11T13:18:59;19.60;21.60
4411;DHT22;2218;51.408;7.208;2024-01-11T13:21:26;19.60;21.60
4411;DHT22;2218;51.408;7.208;2024-01-11T13:23:53;19.60;21.70
4411;DHT22;2218;51.408;7.208;2024-01-11T13:26:20;19.60;21.70
4411;DHT22;2218;51.408;7.208;2024-01-11T13:28:48;19.60;21.70
4411;DHT22;2218;51.408;7.208;2024-01-11T13:31:17;19.60;21.70
4411;DHT22;2218;51.408;7.208;2024-01-11T13:33:45;19.60;21.80
4411;DHT22;2218;51.408;7.208;2024-01-11T13:36:12;19.60;21.80
4411;DHT22;2218;51.408;7.208;2024-01-11T13:38:39;19.60;21.80
4411;DHT22;2218;51.408;7.208;2024-01-11T13:41:06;19.60;21.80
4411;DHT22;2218;51.408;7.208;2024-01-11T13:43:35;19.70;21.90
4411;DHT22;2218;51.408;7.208;2024-01-11T13:46:03;19.60;21.90
4411;DHT22;2218;51.408;7.208;2024-01-11T13:48:31;19.70;22.00
4411;DHT22;2218;51.408;7.208;2024-01-11T13:50:59;19.70;22.00
4411;DHT22;2218;51.408;7.208;2024-01-11T13:53:28;19.60;22.10
4411;DHT22;2218;51.408;7.208;2024-01-11T13:55:56;19.70;22.10
4411;DHT22;2218;51.408;7.208;2024-01-11T13:58:23;19.70;22.20
4411;DHT22;2218;51.408;7.208;2024-01-11T14:00:50;19.70;22.20
4411;DHT22;2218;51.408;7.208;2024-01-11T14:03:18;19.70;22.20
4411;DHT22;2218;51.408;7.208;2024-01-11T14:05:45;19.70;22.20
4411;DHT22;2218;51.408;7.208;2024-01-11T14:08:13;19.70;22.20
4411;DHT22;2218;51.408;7.208;2024-01-11T14:10:40;19.60;22.20
4411;DHT22;2218;51.408;7.208;2024-01-11T14:13:07;19.70;22.30
4411;DHT22;2218;51.408;7.208;2024-01-11T14:15:35;19.70;22.70
4411;DHT22;2218;51.408;7.208;2024-01-11T14:18:05;19.70;22.30
4411;DHT22;2218;51.408;7.208;2024-01-11T14:20:34;19.70;22.40
4411;DHT22;2218;51.408;7.208;2024-01-11T14:23:01;19.70;22.40
4411;DHT22;2218;51.408;7.208;2024-01-11T14:25:28;19.70;22.40
4411;DHT22;2218;51.408;7.208;2024-01-11T14:27:56;19.70;22.40
4411;DHT22;2218;51.408;7.208;2024-01-11T14:30:23;19.70;22.50
4411;DHT22;2218;51.408;7.208;2024-01-11T14:32:50;19.70;22.50
4411;DHT22;2218;51.408;7.208;2024-01-11T14:35:17;19.70;22.50
4411;DHT22;2218;51.408;7.208;2024-01-11T14:37:45;19.70;22.50
4411;DHT22;2218;51.408;7.208;2024-01-11T14:40:12;19.70;22.50
4411;DHT22;2218;51.408;7.208;2024-01-11T14:42:39;19.70;23.00
4411;DHT22;2218;51.408;7.208;2024-01-11T14:45:07;19.70;22.60
4411;DHT22;2218;51.408;7.208;2024-01-11T14:47:35;19.70;22.60
4411;DHT22;2218;51.408;7.208;2024-01-11T14:50:02;19.70;22.60
4411;DHT22;2218;51.408;7.208;2024-01-11T14:52:30;19.70;22.60
4411;DHT22;2218;51.408;7.208;2024-01-11T14:55:00;19.70;22.70
4411;DHT22;2218;51.408;7.208;2024-01-11T14:57:28;19.70;22.60
4411;DHT22;2218;51.408;7.208;2024-01-11T14:59:54;19.70;22.70
4411;DHT22;2218;51.408;7.208;2024-01-11T15:02:21;19.70;22.70
4411;DHT22;2218;51.408;7.208;2024-01-11T15:04:48;19.70;22.70
4411;DHT22;2218;51.408;7.208;2024-01-11T15:07:15;19.70;22.70
4411;DHT22;2218;51.408;7.208;2024-01-11T15:09:43;19.70;22.70
4411;DHT22;2218;51.408;7.208;2024-01-11T15:12:11;19.70;22.70
4411;DHT22;2218;51.408;7.208;2024-01-11T15:14:38;19.70;22.70
4411;DHT22;2218;51.408;7.208;2024-01-11T15:17:05;19.70;22.60
4411;DHT22;2218;51.408;7.208;2024-01-11T15:19:33;19.70;22.60
4411;DHT22;2218;51.408;7.208;2024-01-11T15:22:00;19.70;22.70
4411;DHT22;2218;51.408;7.208;2024-01-11T15:24:27;19.70;22.60
4411;DHT22;2218;51.408;7.208;2024-01-11T15:26:55;19.70;22.60
4411;DHT22;2218;51.408;7.208;2024-01-11T15:29:23;19.70;22.60
4411;DHT22;2218;51.408;7.208;2024-01-11T15:31:50;19.70;22.60
4411;DHT22;2218;51.408;7.208;2024-01-11T15:34:17;19.70;22.60
4411;DHT22;2218;51.408;7.208;2024-01-11T15:36:44;19.70;22.60
4411;DHT22;2218;51.408;7.208;2024-01-11T15:39:12;19.70;22.70
4411;DHT22;2218;51.408;7.208;2024-01-11T15:41:39;19.70;22.60
4411;DHT22;2218;51.408;7.208;2024-01-11T15:44:07;19.70;22.60
4411;DHT22;2218;51.408;7.208;2024-01-11T15:46:35;19.70;22.60
4411;DHT22;2218;51.408;7.208;2024-01-11T15:49:02;19.70;22.70
4411;DHT22;2218;51.408;7.208;2024-01-11T15:51:29;19.70;22.60
4411;DHT22;2218;51.408;7.208;2024-01-11T15:53:57;19.70;22.60
4411;DHT22;2218;51.408;7.208;2024-01-11T15:56:24;19.70;22.60
4411;DHT22;2218;51.408;7.208;2024-01-11T15:58:51;19.70;22.60
4411;DHT22;2218;51.408;7.208;2024-01-11T16:01:18;19.70;22.60
4411;DHT22;2218;51.408;7.208;2024-01-11T16:03:46;19.70;22.60
4411;DHT22;2218;51.408;7.208;2024-01-11T16:06:15;19.70;22.60